sensor_id;sensor_type;location;lat;lon;timestamp;temperature;humidity
4461;DHT22;2243;48.812;9.232;2022-12-18T00:00:18;-6.60;99.90
4461;DHT22;2243;48.812;9.232;2022-12-18T00:02:49;-6.60;99.90
4461;DHT22;2243;48.812;9.232;2022-12-18T00:05:21;-6.80;99.90
4461;DHT22;2243;48.812;9.232;2022-12-18T00:07:51;-6.60;99.90
4461;DHT22;2243;48.812;9.232;2022-12-18T00:10:22;-6.50;99.90
4461;DHT22;2243;48.812;9.232;2022-12-18T00:12:53;-6.60;99.90
4461;DHT22;2243;48.812;9.232;2022-12-18T00:15:24;-6.70;99.90
4461;DHT22;2243;48.812;9.232;2022-12-18T00:17:55;-6.70;99.90
4461;DHT22;2243;48.812;9.232;2022-12-18T00:20:28;-6.80;99.90
4461;DHT22;2243;48.812;9.232;2022-12-18T00:22:59;-6.80;99.90
4461;DHT22;2243;48.812;9.232;2022-12-18T00:25:33;-6.80;99.90
4461;DHT22;2243;48.812;9.232;2022-12-18T00:28:05;-6.80;99.90
4461;DHT22;2243;48.812;9.232;2022-12-18T00:30:36;-6.70;99.90
4461;DHT22;2243;48.812;9.232;2022-12-18T00:33:07;-6.70;99.90
4461;DHT22;2243;48.812;9.232;2022-12-18T00:35:38;-6.70;99.90
4461;DHT22;2243;48.812;9.232;2022-12-18T00:38:09;-6.80;99.90
4461;DHT22;2243;48.812;9.232;2022-12-18T00:40:40;-6.50;99.90
4461;DHT22;2243;48.812;9.232;2022-12-18T00:43:11;-6.70;99.90
4461;DHT22;2243;48.812;9.232;2022-12-18T00:45:42;-6.90;99.90
4461;DHT22;2243;48.812;9.232;2022-12-18T00:48:14;-6.80;99.90
4461;DHT22;2243;48.812;9.232;2022-12-18T00:50:47;-6.80;99.90
4461;DHT22;2243;48.812;9.232;2022-12-18T00:53:18;-6.90;99.90
4461;DHT22;2243;48.812;9.232;2022-12-18T00:55:49;-6.80;99.90
4461;DHT22;2243;48.812;9.232;2022-12-18T00:58:20;-6.70;99.90
4461;DHT22;2243;48.812;9.232;2022-12-18T01:00:51;-6.70;99.90
4461;DHT22;2243;48.812;9.232;2022-12-18T01:03:22;-6.80;99.90
4461;DHT22;2243;48.812;9.232;2022-12-18T01:05:53;-6.90;99.90
4461;DHT22;2243;48.812;9.232;2022-12-18T01:08:24;-7.00;99.90
4461;DHT22;2243;48.812;9.232;2022-12-18T01:10:55;-6.80;99.90
4461;DHT22;2243;48.812;9.232;2022-12-18T01:13:26;-6.80;99.90
4461;DHT22;2243;48.812;9.232;2022-12-18T01:15:57;-6.80;99.90
4461;DHT22;2243;48.812;9.232;2022-12-18T01:18:28;-6.70;99.90
4461;DHT22;2243;48.812;9.232;2022-12-18T01:21:06;-6.80;99.90
4461;DHT22;2243;48.812;9.232;2022-12-18T01:23:44;-6.70;99.90
4461;DHT22;2243;48.812;9.232;2022-12-18T01:26:15;-6.70;99.90
4461;DHT22;2243;48.812;9.232;2022-12-18T01:28:47;-6.80;99.90
4461;DHT22;2243;48.812;9.232;2022-12-18T01:31:21;-7.00;99.90
4461;DHT22;2243;48.812;9.232;2022-12-18T01:33:53;-7.00;99.90
4461;DHT22;2243;48.812;9.232;2022-12-18T01:36:27;-6.90;99.90
4461;DHT22;2243;48.812;9.232;2022-12-18T01:39:02;-7.00;99.90
4461;DHT22;2243;48.812;9.232;2022-12-18T01:41:35;-7.10;99.90
4461;DHT22;2243;48.812;9.232;2022-12-18T01:50:21;-7.10;99.90
4461;DHT22;2243;48.812;9.232;2022-12-18T01:53:05;-7.00;99.90
4461;DHT22;2243;48.812;9.232;2022-12-18T01:55:43;-7.00;99.90
4461;DHT22;2243;48.812;9.232;2022-12-18T02:01:04;-7.00;99.90
4461;DHT22;2243;48.812;9.232;2022-12-18T02:03:35;-7.20;99.90
4461;DHT22;2243;48.812;9.232;2022-12-18T02:06:16;-7.30;99.90
4461;DHT22;2243;48.812;9.232;2022-12-18T02:11:58;-7.20;99.90
4461;DHT22;2243;48.812;9.232;2022-12-18T02:17:20;-7.30;99.90
4461;DHT22;2243;48.812;9.232;2022-12-18T02:20:15;-7.30;99.90
4461;DHT22;2243;48.812;9.232;2022-12-18T02:26:04;-7.10;99.90
4461;DHT22;2243;48.812;9.232;2022-12-18T02:28:47;-7.00;99.90
4461;DHT22;2243;48.812;9.232;2022-12-18T02:31:25;-6.90;99.90
4461;DHT22;2243;48.812;9.232;2022-12-18T02:34:00;-6.90;99.90
4461;DHT22;2243;48.812;9.232;2022-12-18T02:36:40;-6.90;99.90
4461;DHT22;2243;48.812;9.232;2022-12-18T02:39:13;-6.90;99.90
4461;DHT22;2243;48.812;9.232;2022-12-18T02:41:46;-6.80;99.90
4461;DHT22;2243;48.812;9.232;2022-12-18T02:44:18;-6.80;99.90
4461;DHT22;2243;48.812;9.232;2022-12-18T02:46:52;-6.90;99.90
4461;DHT22;2243;48.812;9.232;2022-12-18T02:58:15;-7.00;99.90
4461;DHT22;2243;48.812;9.232;2022-12-18T03:00:59;-7.00;99.90
4461;DHT22;2243;48.812;9.232;2022-12-18T03:03:41;-7.10;99.90
4461;DHT22;2243;48.812;9.232;2022-12-18T03:06:25;-7.00;99.90
4461;DHT22;2243;48.812;9.232;2022-12-18T03:09:02;-6.90;99.90
4461;DHT22;2243;48.812;9.232;2022-12-18T03:11:41;-6.90;99.90
4461;DHT22;2243;48.812;9.232;2022-12-18T03:14:38;-6.80;99.90
4461;DHT22;2243;48.812;9.232;2022-12-18T03:17:11;-6.80;99.90
4461;DHT22;2243;48.812;9.232;2022-12-18T03:19:46;-6.80;99.90
4461;DHT22;2243;48.812;9.232;2022-12-18T03:22:20;-6.80;99.90
4461;DHT22;2243;48.812;9.232;2022-12-18T03:24:54;-6.70;99.90
4461;DHT22;2243;48.812;9.232;2022-12-18T03:27:28;-6.70;99.90
4461;DHT22;2243;48.812;9.232;2022-12-18T03:30:08;-6.60;99.90
4461;DHT22;2243;48.812;9.232;2022-12-18T03:35:44;-6.60;99.90
4461;DHT22;2243;48.812;9.232;2022-12-18T03:38:15;-6.70;99.90
4461;DHT22;2243;48.812;9.232;2022-12-18T03:46:55;-6.70;99.90
4461;DHT22;2243;48.812;9.232;2022-12-18T03:49:40;-6.70;99.90
4461;DHT22;2243;48.812;9.232;2022-12-18T03:52:31;-6.60;99.90
4461;DHT22;2243;48.812;9.232;2022-12-18T03:55:09;-6.70;99.90
4461;DHT22;2243;48.812;9.232;2022-12-18T03:57:42;-6.70;99.90
4461;DHT22;2243;48.812;9.232;2022-12-18T04:00:17;-6.70;99.90
4461;DHT22;2243;48.812;9.232;2022-12-18T04:02:51;-6.70;99.90
4461;DHT22;2243;48.812;9.232;2022-12-18T04:05:25;-6.70;99.90
4461;DHT22;2243;48.812;9.232;2022-12-18T04:07:57;-6.70;99.90
4461;DHT22;2243;48.812;9.232;2022-12-18T04:10:29;-6.70;99.90
4461;DHT22;2243;48.812;9.232;2022-12-18T04:13:00;-6.70;99.90
4461;DHT22;2243;48.812;9.232;2022-12-18T04:15:34;-6.60;99.90
4461;DHT22;2243;48.812;9.232;2022-12-18T04:18:07;-6.70;99.90
4461;DHT22;2243;48.812;9.232;2022-12-18T04:20:38;-6.70;99.90
4461;DHT22;2243;48.812;9.232;2022-12-18T04:23:09;-6.80;99.90
4461;DHT22;2243;48.812;9.232;2022-12-18T04:25:40;-6.80;99.90
4461;DHT22;2243;48.812;9.232;2022-12-18T04:28:11;-6.90;99.90
4461;DHT22;2243;48.812;9.232;2022-12-18T04:30:42;-7.00;99.90
4461;DHT22;2243;48.812;9.232;2022-12-18T04:33:18;-7.00;99.90
4461;DHT22;2243;48.812;9.232;2022-12-18T04:35:49;-7.00;99.90
4461;DHT22;2243;48.812;9.232;2022-12-18T04:38:20;-7.20;99.90
4461;DHT22;2243;48.812;9.232;2022-12-18T04:40:51;-7.20;99.90
4461;DHT22;2243;48.812;9.232;2022-12-18T04:43:22;-7.30;99.90
4461;DHT22;2243;48.812;9.232;2022-12-18T04:45:53;-7.40;99.90
4461;DHT22;2243;48.812;9.232;2022-12-18T04:48:24;-7.40;99.90
4461;DHT22;2243;48.812;9.232;2022-12-18T04:50:55;-7.40;99.90
4461;DHT22;2243;48.812;9.232;2022-12-18T04:53:26;-7.40;99.90
4461;DHT22;2243;48.812;9.232;2022-12-18T04:58:40;-7.50;99.90
4461;DHT22;2243;48.812;9.232;2022-12-18T05:01:16;-7.60;99.90
4461;DHT22;2243;48.812;9.232;2022-12-18T05:03:48;-7.70;99.90
4461;DHT22;2243;48.812;9.232;2022-12-18T05:06:19;-7.70;99.90
4461;DHT22;2243;48.812;9.232;2022-12-18T05:08:49;-7.70;99.90
4461;DHT22;2243;48.812;9.232;2022-12-18T05:11:20;-7.60;99.90
4461;DHT22;2243;48.812;9.232;2022-12-18T05:13:51;-7.50;99.90
4461;DHT22;2243;48.812;9.232;2022-12-18T05:16:22;-7.50;99.90
4461;DHT22;2243;48.812;9.232;2022-12-18T05:18:53;-7.50;99.90
4461;DHT22;2243;48.812;9.232;2022-12-18T05:21:24;-7.50;99.90
4461;DHT22;2243;48.812;9.232;2022-12-18T05:23:55;-7.50;99.90
4461;DHT22;2243;48.812;9.232;2022-12-18T05:26:26;-7.50;99.90
4461;DHT22;2243;48.812;9.232;2022-12-18T05:28:57;-7.50;99.90
4461;DHT22;2243;48.812;9.232;2022-12-18T05:31:28;-7.50;99.90
4461;DHT22;2243;48.812;9.232;2022-12-18T05:34:06;-7.60;99.90
4461;DHT22;2243;48.812;9.232;2022-12-18T05:36:37;-7.60;99.90
4461;DHT22;2243;48.812;9.232;2022-12-18T05:39:08;-7.50;99.90
4461;DHT22;2243;48.812;9.232;2022-12-18T05:41:39;-7.60;99.90
4461;DHT22;2243;48.812;9.232;2022-12-18T05:44:11;-7.70;99.90
4461;DHT22;2243;48.812;9.232;2022-12-18T05:46:41;-7.70;99.90
4461;DHT22;2243;48.812;9.232;2022-12-18T05:49:12;-7.60;99.90
4461;DHT22;2243;48.812;9.232;2022-12-18T05:51:44;-7.60;99.90
4461;DHT22;2243;48.812;9.232;2022-12-18T05:54:15;-7.90;99.90
4461;DHT22;2243;48.812;9.232;2022-12-18T05:56:46;-8.00;99.90
4461;DHT22;2243;48.812;9.232;2022-12-18T05:59:18;-7.80;99.90
4461;DHT22;2243;48.812;9.232;2022-12-18T06:01:49;-8.00;99.90
4461;DHT22;2243;48.812;9.232;2022-12-18T06:04:20;-8.10;99.90
4461;DHT22;2243;48.812;9.232;2022-12-18T06:06:51;-8.10;99.90
4461;DHT22;2243;48.812;9.232;2022-12-18T06:09:22;-8.20;99.90
4461;DHT22;2243;48.812;9.232;2022-12-18T06:11:53;-8.30;99.90
4461;DHT22;2243;48.812;9.232;2022-12-18T06:14:24;-8.30;99.90
4461;DHT22;2243;48.812;9.232;2022-12-18T06:16:55;-8.20;99.90
4461;DHT22;2243;48.812;9.232;2022-12-18T06:19:26;-8.20;99.90
4461;DHT22;2243;48.812;9.232;2022-12-18T06:21:57;-8.40;99.90
4461;DHT22;2243;48.812;9.232;2022-12-18T06:24:30;-8.40;99.90
4461;DHT22;2243;48.812;9.232;2022-12-18T06:27:01;-8.30;99.90
4461;DHT22;2243;48.812;9.232;2022-12-18T06:29:32;-8.20;99.90
4461;DHT22;2243;48.812;9.232;2022-12-18T06:32:03;-8.20;99.90
4461;DHT22;2243;48.812;9.232;2022-12-18T06:34:37;-8.20;99.90
4461;DHT22;2243;48.812;9.232;2022-12-18T06:37:08;-8.30;99.90
4461;DHT22;2243;48.812;9.232;2022-12-18T06:39:39;-8.30;99.90
4461;DHT22;2243;48.812;9.232;2022-12-18T06:42:10;-8.30;99.90
4461;DHT22;2243;48.812;9.232;2022-12-18T06:44:41;-8.30;99.90
4461;DHT22;2243;48.812;9.232;2022-12-18T06:47:11;-8.30;99.90
4461;DHT22;2243;48.812;9.232;2022-12-18T06:49:43;-8.30;99.90
4461;DHT22;2243;48.812;9.232;2022-12-18T06:52:13;-8.30;99.90
4461;DHT22;2243;48.812;9.232;2022-12-18T06:54:44;-8.30;99.90
4461;DHT22;2243;48.812;9.232;2022-12-18T06:57:15;-8.40;99.90
4461;DHT22;2243;48.812;9.232;2022-12-18T06:59:46;-8.40;99.90
4461;DHT22;2243;48.812;9.232;2022-12-18T07:02:17;-8.50;99.90
4461;DHT22;2243;48.812;9.232;2022-12-18T07:04:49;-8.40;99.90
4461;DHT22;2243;48.812;9.232;2022-12-18T07:07:20;-8.40;99.90
4461;DHT22;2243;48.812;9.232;2022-12-18T07:09:51;-8.40;99.90
4461;DHT22;2243;48.812;9.232;2022-12-18T07:12:22;-8.40;99.90
4461;DHT22;2243;48.812;9.232;2022-12-18T07:14:53;-8.40;99.90
4461;DHT22;2243;48.812;9.232;2022-12-18T07:17:24;-8.50;99.90
4461;DHT22;2243;48.812;9.232;2022-12-18T07:19:55;-8.40;99.90
4461;DHT22;2243;48.812;9.232;2022-12-18T07:22:26;-8.50;99.90
4461;DHT22;2243;48.812;9.232;2022-12-18T07:24:58;-8.50;99.90
4461;DHT22;2243;48.812;9.232;2022-12-18T07:27:29;-8.50;99.90
4461;DHT22;2243;48.812;9.232;2022-12-18T07:30:00;-8.20;99.90
4461;DHT22;2243;48.812;9.232;2022-12-18T07:32:31;-8.30;99.90
4461;DHT22;2243;48.812;9.232;2022-12-18T07:35:02;-8.20;99.90
4461;DHT22;2243;48.812;9.232;2022-12-18T07:37:34;-8.30;99.90
4461;DHT22;2243;48.812;9.232;2022-12-18T07:40:05;-8.20;99.90
4461;DHT22;2243;48.812;9.232;2022-12-18T07:42:36;-8.40;99.90
4461;DHT22;2243;48.812;9.232;2022-12-18T07:45:08;-8.30;99.90
4461;DHT22;2243;48.812;9.232;2022-12-18T07:47:39;-8.20;99.90
4461;DHT22;2243;48.812;9.232;2022-12-18T07:50:11;-8.20;99.90
4461;DHT22;2243;48.812;9.232;2022-12-18T07:52:43;-8.10;99.90
4461;DHT22;2243;48.812;9.232;2022-12-18T07:55:14;-8.30;99.90
4461;DHT22;2243;48.812;9.232;2022-12-18T07:57:45;-8.50;99.90
4461;DHT22;2243;48.812;9.232;2022-12-18T08:00:23;-8.50;99.90
4461;DHT22;2243;48.812;9.232;2022-12-18T08:02:54;-8.40;99.90
4461;DHT22;2243;48.812;9.232;2022-12-18T08:05:26;-8.30;99.90
4461;DHT22;2243;48.812;9.232;2022-12-18T08:07:58;-8.20;99.90
4461;DHT22;2243;48.812;9.232;2022-12-18T08:10:29;-8.20;99.90
4461;DHT22;2243;48.812;9.232;2022-12-18T08:13:00;-8.10;99.90
4461;DHT22;2243;48.812;9.232;2022-12-18T08:15:34;-8.10;99.90
4461;DHT22;2243;48.812;9.232;2022-12-18T08:18:05;-8.10;99.90
4461;DHT22;2243;48.812;9.232;2022-12-18T08:20:43;-8.10;99.90
4461;DHT22;2243;48.812;9.232;2022-12-18T08:23:14;-7.90;99.90
4461;DHT22;2243;48.812;9.232;2022-12-18T08:25:45;-8.00;99.90
4461;DHT22;2243;48.812;9.232;2022-12-18T08:28:16;-7.90;99.90
4461;DHT22;2243;48.812;9.232;2022-12-18T08:30:51;-7.70;99.90
4461;DHT22;2243;48.812;9.232;2022-12-18T08:33:22;-7.60;99.90
4461;DHT22;2243;48.812;9.232;2022-12-18T08:35:58;-7.60;99.90
4461;DHT22;2243;48.812;9.232;2022-12-18T08:38:31;-7.60;99.90
4461;DHT22;2243;48.812;9.232;2022-12-18T08:41:07;-7.60;99.90
4461;DHT22;2243;48.812;9.232;2022-12-18T08:43:41;-7.80;99.90
4461;DHT22;2243;48.812;9.232;2022-12-18T08:46:35;-7.70;99.90
4461;DHT22;2243;48.812;9.232;2022-12-18T08:49:11;-7.80;99.90
4461;DHT22;2243;48.812;9.232;2022-12-18T08:51:42;-7.80;99.90
4461;DHT22;2243;48.812;9.232;2022-12-18T08:54:13;-7.80;99.90
4461;DHT22;2243;48.812;9.232;2022-12-18T08:56:44;-7.70;99.90
4461;DHT22;2243;48.812;9.232;2022-12-18T08:59:16;-7.70;99.90
4461;DHT22;2243;48.812;9.232;2022-12-18T09:01:49;-7.60;99.90
4461;DHT22;2243;48.812;9.232;2022-12-18T09:04:21;-7.50;99.90
4461;DHT22;2243;48.812;9.232;2022-12-18T09:06:52;-7.40;99.90
4461;DHT22;2243;48.812;9.232;2022-12-18T09:09:23;-7.40;99.90
4461;DHT22;2243;48.812;9.232;2022-12-18T09:11:56;-7.40;99.90
4461;DHT22;2243;48.812;9.232;2022-12-18T09:14:27;-7.40;99.90
4461;DHT22;2243;48.812;9.232;2022-12-18T09:16:58;-7.10;99.90
4461;DHT22;2243;48.812;9.232;2022-12-18T09:19:29;-6.90;99.90
4461;DHT22;2243;48.812;9.232;2022-12-18T09:22:00;-6.90;99.90
4461;DHT22;2243;48.812;9.232;2022-12-18T09:24:31;-6.80;99.90
4461;DHT22;2243;48.812;9.232;2022-12-18T09:27:02;-6.90;99.90
4461;DHT22;2243;48.812;9.232;2022-12-18T09:29:33;-6.80;99.90
4461;DHT22;2243;48.812;9.232;2022-12-18T09:32:04;-6.80;99.90
4461;DHT22;2243;48.812;9.232;2022-12-18T09:34:35;-6.70;99.90
4461;DHT22;2243;48.812;9.232;2022-12-18T09:37:06;-6.50;99.90
4461;DHT22;2243;48.812;9.232;2022-12-18T09:39:38;-6.40;99.90
4461;DHT22;2243;48.812;9.232;2022-12-18T09:42:21;-6.20;99.90
4461;DHT22;2243;48.812;9.232;2022-12-18T09:44:53;-6.00;99.90
4461;DHT22;2243;48.812;9.232;2022-12-18T09:47:32;-6.00;99.90
4461;DHT22;2243;48.812;9.232;2022-12-18T09:50:23;-5.90;99.90
4461;DHT22;2243;48.812;9.232;2022-12-18T09:53:02;-6.00;99.90
4461;DHT22;2243;48.812;9.232;2022-12-18T09:55:40;-6.00;99.90
4461;DHT22;2243;48.812;9.232;2022-12-18T09:58:36;-6.00;99.90
4461;DHT22;2243;48.812;9.232;2022-12-18T10:01:16;-5.90;99.90
4461;DHT22;2243;48.812;9.232;2022-12-18T10:03:54;-5.80;99.90
4461;DHT22;2243;48.812;9.232;2022-12-18T10:09:58;-5.70;99.90
4461;DHT22;2243;48.812;9.232;2022-12-18T10:13:53;-5.70;99.90
4461;DHT22;2243;48.812;9.232;2022-12-18T10:16:00;-5.60;99.90
4461;DHT22;2243;48.812;9.232;2022-12-18T10:21:37;-5.20;99.90
4461;DHT22;2243;48.812;9.232;2022-12-18T10:24:21;-4.70;99.90
4461;DHT22;2243;48.812;9.232;2022-12-18T10:27:14;-4.30;99.90
4461;DHT22;2243;48.812;9.232;2022-12-18T10:29:47;-3.90;99.90
4461;DHT22;2243;48.812;9.232;2022-12-18T10:32:20;-3.60;99.90
4461;DHT22;2243;48.812;9.232;2022-12-18T10:34:55;-3.40;99.90
4461;DHT22;2243;48.812;9.232;2022-12-18T10:37:30;-3.60;99.90
4461;DHT22;2243;48.812;9.232;2022-12-18T10:43:22;-3.20;99.90
4461;DHT22;2243;48.812;9.232;2022-12-18T10:45:59;-3.00;99.90
4461;DHT22;2243;48.812;9.232;2022-12-18T10:51:35;-3.00;99.90
4461;DHT22;2243;48.812;9.232;2022-12-18T10:54:21;-3.00;99.90
4461;DHT22;2243;48.812;9.232;2022-12-18T10:57:14;-3.00;99.90
4461;DHT22;2243;48.812;9.232;2022-12-18T10:59:58;-3.00;99.90
4461;DHT22;2243;48.812;9.232;2022-12-18T11:02:36;-2.80;99.90
4461;DHT22;2243;48.812;9.232;2022-12-18T11:05:32;-2.80;99.90
4461;DHT22;2243;48.812;9.232;2022-12-18T11:08:04;-2.80;99.90
4461;DHT22;2243;48.812;9.232;2022-12-18T11:10:37;-2.50;99.90
4461;DHT22;2243;48.812;9.232;2022-12-18T11:13:11;-2.40;99.90
4461;DHT22;2243;48.812;9.232;2022-12-18T11:15:48;-2.20;99.90
4461;DHT22;2243;48.812;9.232;2022-12-18T11:18:34;-2.30;99.90
4461;DHT22;2243;48.812;9.232;2022-12-18T11:21:07;-2.10;99.90
4461;DHT22;2243;48.812;9.232;2022-12-18T11:23:53;-2.10;99.90
4461;DHT22;2243;48.812;9.232;2022-12-18T11:26:34;-2.20;99.90
4461;DHT22;2243;48.812;9.232;2022-12-18T11:29:15;-2.20;99.90
4461;DHT22;2243;48.812;9.232;2022-12-18T11:31:49;-2.30;99.90
4461;DHT22;2243;48.812;9.232;2022-12-18T11:34:26;-1.90;99.90
4461;DHT22;2243;48.812;9.232;2022-12-18T11:37:01;-1.80;99.90
4461;DHT22;2243;48.812;9.232;2022-12-18T11:42:22;-1.60;99.90
4461;DHT22;2243;48.812;9.232;2022-12-18T11:50:41;-1.50;99.90
4461;DHT22;2243;48.812;9.232;2022-12-18T11:53:20;-1.50;99.90
4461;DHT22;2243;48.812;9.232;2022-12-18T11:58:49;-1.40;99.90
4461;DHT22;2243;48.812;9.232;2022-12-18T12:01:48;-1.10;99.90
4461;DHT22;2243;48.812;9.232;2022-12-18T12:07:52;-0.70;99.90
4461;DHT22;2243;48.812;9.232;2022-12-18T12:17:19;-0.60;99.90
4461;DHT22;2243;48.812;9.232;2022-12-18T12:20:27;-0.70;99.90
4461;DHT22;2243;48.812;9.232;2022-12-18T12:30:18;-0.90;99.90
4461;DHT22;2243;48.812;9.232;2022-12-18T12:33:19;-1.20;99.90
4461;DHT22;2243;48.812;9.232;2022-12-18T12:39:35;-0.80;99.90
4461;DHT22;2243;48.812;9.232;2022-12-18T12:42:43;-0.70;99.90
4461;DHT22;2243;48.812;9.232;2022-12-18T12:46:16;-0.50;99.90
4461;DHT22;2243;48.812;9.232;2022-12-18T12:51:21;-0.10;99.90
4461;DHT22;2243;48.812;9.232;2022-12-18T12:53:57;-0.10;99.90
4461;DHT22;2243;48.812;9.232;2022-12-18T12:56:50;-0.30;99.90
4461;DHT22;2243;48.812;9.232;2022-12-18T12:59:47;-0.30;99.90
4461;DHT22;2243;48.812;9.232;2022-12-18T13:02:51;-0.20;99.90
4461;DHT22;2243;48.812;9.232;2022-12-18T13:08:34;-0.10;99.90
4461;DHT22;2243;48.812;9.232;2022-12-18T13:14:37;-0.40;99.90
4461;DHT22;2243;48.812;9.232;2022-12-18T13:17:30;-0.50;99.90
4461;DHT22;2243;48.812;9.232;2022-12-18T13:20:09;-0.40;99.90
4461;DHT22;2243;48.812;9.232;2022-12-18T13:22:48;-0.20;99.90
4461;DHT22;2243;48.812;9.232;2022-12-18T13:25:33;0.10;99.90
4461;DHT22;2243;48.812;9.232;2022-12-18T13:28:14;0.10;99.90
4461;DHT22;2243;48.812;9.232;2022-12-18T13:30:47;-0.30;99.90
4461;DHT22;2243;48.812;9.232;2022-12-18T13:33:38;-0.20;99.90
4461;DHT22;2243;48.812;9.232;2022-12-18T13:36:33;-0.20;99.90
4461;DHT22;2243;48.812;9.232;2022-12-18T13:39:23;-0.10;99.90
4461;DHT22;2243;48.812;9.232;2022-12-18T13:44:40;-0.20;99.90
4461;DHT22;2243;48.812;9.232;2022-12-18T13:47:31;-0.30;99.90
4461;DHT22;2243;48.812;9.232;2022-12-18T13:50:26;-0.30;99.90
4461;DHT22;2243;48.812;9.232;2022-12-18T13:53:05;-0.20;99.90
4461;DHT22;2243;48.812;9.232;2022-12-18T13:55:36;-0.30;99.90
4461;DHT22;2243;48.812;9.232;2022-12-18T13:58:12;-0.10;99.90
4461;DHT22;2243;48.812;9.232;2022-12-18T14:00:43;-0.10;99.90
4461;DHT22;2243;48.812;9.232;2022-12-18T14:03:19;-0.10;99.90
4461;DHT22;2243;48.812;9.232;2022-12-18T14:06:06;-0.10;99.90
4461;DHT22;2243;48.812;9.232;2022-12-18T14:08:41;-0.20;99.90
4461;DHT22;2243;48.812;9.232;2022-12-18T14:11:22;0.00;99.90
4461;DHT22;2243;48.812;9.232;2022-12-18T14:13:56;0.00;99.90
4461;DHT22;2243;48.812;9.232;2022-12-18T14:16:28;0.00;99.90
4461;DHT22;2243;48.812;9.232;2022-12-18T14:18:59;-0.20;99.90
4461;DHT22;2243;48.812;9.232;2022-12-18T14:21:49;-0.10;99.90
4461;DHT22;2243;48.812;9.232;2022-12-18T14:24:21;-0.20;99.90
4461;DHT22;2243;48.812;9.232;2022-12-18T14:26:52;-0.40;99.90
4461;DHT22;2243;48.812;9.232;2022-12-18T14:29:29;-0.50;99.90
4461;DHT22;2243;48.812;9.232;2022-12-18T14:34:51;-0.70;99.90
4461;DHT22;2243;48.812;9.232;2022-12-18T14:37:32;-0.70;99.90
4461;DHT22;2243;48.812;9.232;2022-12-18T14:40:04;-0.70;99.90
4461;DHT22;2243;48.812;9.232;2022-12-18T14:42:40;-0.70;99.90
4461;DHT22;2243;48.812;9.232;2022-12-18T14:45:38;-0.80;99.90
4461;DHT22;2243;48.812;9.232;2022-12-18T14:48:17;-0.80;99.90
4461;DHT22;2243;48.812;9.232;2022-12-18T14:53:41;-0.90;99.90
4461;DHT22;2243;48.812;9.232;2022-12-18T14:56:24;-1.00;99.90
4461;DHT22;2243;48.812;9.232;2022-12-18T14:59:02;-1.00;99.90
4461;DHT22;2243;48.812;9.232;2022-12-18T15:02:03;-1.00;99.90
4461;DHT22;2243;48.812;9.232;2022-12-18T15:04:42;-1.10;99.90
4461;DHT22;2243;48.812;9.232;2022-12-18T15:07:17;-1.00;99.90
4461;DHT22;2243;48.812;9.232;2022-12-18T15:10:13;-1.10;99.90
4461;DHT22;2243;48.812;9.232;2022-12-18T15:20:43;-1.40;99.90
4461;DHT22;2243;48.812;9.232;2022-12-18T15:23:27;-1.40;99.90
4461;DHT22;2243;48.812;9.232;2022-12-18T15:26:08;-1.50;99.90
4461;DHT22;2243;48.812;9.232;2022-12-18T15:29:00;-1.50;99.90
4461;DHT22;2243;48.812;9.232;2022-12-18T15:31:34;-1.50;99.90
4461;DHT22;2243;48.812;9.232;2022-12-18T15:34:12;-1.60;99.90
4461;DHT22;2243;48.812;9.232;2022-12-18T15:36:44;-1.60;99.90
4461;DHT22;2243;48.812;9.232;2022-12-18T15:39:15;-1.70;99.90
4461;DHT22;2243;48.812;9.232;2022-12-18T15:41:46;-1.70;99.90
4461;DHT22;2243;48.812;9.232;2022-12-18T15:44:36;-1.60;99.90
4461;DHT22;2243;48.812;9.232;2022-12-18T15:47:12;-1.60;99.90
4461;DHT22;2243;48.812;9.232;2022-12-18T15:49:43;-1.70;99.90
4461;DHT22;2243;48.812;9.232;2022-12-18T15:52:14;-1.60;99.90
4461;DHT22;2243;48.812;9.232;2022-12-18T15:54:56;-1.70;99.90
4461;DHT22;2243;48.812;9.232;2022-12-18T15:57:46;-1.80;99.90
4461;DHT22;2243;48.812;9.232;2022-12-18T16:00:17;-1.90;99.90
4461;DHT22;2243;48.812;9.232;2022-12-18T16:02:48;-2.00;99.90
4461;DHT22;2243;48.812;9.232;2022-12-18T16:05:22;-2.00;99.90
4461;DHT22;2243;48.812;9.232;2022-12-18T16:07:53;-2.10;99.90
4461;DHT22;2243;48.812;9.232;2022-12-18T16:10:25;-2.20;99.90
4461;DHT22;2243;48.812;9.232;2022-12-18T16:12:57;-2.30;99.90
4461;DHT22;2243;48.812;9.232;2022-12-18T16:15:28;-2.40;99.90
4461;DHT22;2243;48.812;9.232;2022-12-18T16:17:59;-2.40;99.90
4461;DHT22;2243;48.812;9.232;2022-12-18T16:20:30;-2.40;99.90
4461;DHT22;2243;48.812;9.232;2022-12-18T16:23:01;-2.40;99.90
4461;DHT22;2243;48.812;9.232;2022-12-18T16:25:32;-2.40;99.90
4461;DHT22;2243;48.812;9.232;2022-12-18T16:28:03;-2.40;99.90
4461;DHT22;2243;48.812;9.232;2022-12-18T16:30:34;-2.40;99.90
4461;DHT22;2243;48.812;9.232;2022-12-18T16:33:09;-2.40;99.90
4461;DHT22;2243;48.812;9.232;2022-12-18T16:35:41;-2.30;99.90
4461;DHT22;2243;48.812;9.232;2022-12-18T16:38:12;-2.30;99.90
4461;DHT22;2243;48.812;9.232;2022-12-18T16:40:43;-2.40;99.90
4461;DHT22;2243;48.812;9.232;2022-12-18T16:43:34;-2.40;99.90
4461;DHT22;2243;48.812;9.232;2022-12-18T16:46:05;-2.40;99.90
4461;DHT22;2243;48.812;9.232;2022-12-18T16:48:36;-2.40;99.90
4461;DHT22;2243;48.812;9.232;2022-12-18T16:51:07;-2.40;99.90
4461;DHT22;2243;48.812;9.232;2022-12-18T16:53:38;-2.40;99.90
4461;DHT22;2243;48.812;9.232;2022-12-18T16:56:09;-2.40;99.90
4461;DHT22;2243;48.812;9.232;2022-12-18T16:58:40;-2.40;99.90
4461;DHT22;2243;48.812;9.232;2022-12-18T17:01:12;-2.40;99.90
4461;DHT22;2243;48.812;9.232;2022-12-18T17:03:43;-2.40;99.90
4461;DHT22;2243;48.812;9.232;2022-12-18T17:06:16;-2.40;99.90
4461;DHT22;2243;48.812;9.232;2022-12-18T17:08:58;-2.40;99.90
4461;DHT22;2243;48.812;9.232;2022-12-18T17:11:32;-2.40;99.90
4461;DHT22;2243;48.812;9.232;2022-12-18T17:14:16;-2.40;99.90
4461;DHT22;2243;48.812;9.232;2022-12-18T17:16:50;-2.40;99.90
4461;DHT22;2243;48.812;9.232;2022-12-18T17:19:41;-2.40;99.90
4461;DHT22;2243;48.812;9.232;2022-12-18T17:22:12;-1.50;99.90
4461;DHT22;2243;48.812;9.232;2022-12-18T17:24:43;-1.60;99.90
4461;DHT22;2243;48.812;9.232;2022-12-18T17:27:16;-1.70;99.90
4461;DHT22;2243;48.812;9.232;2022-12-18T17:29:47;-1.80;99.90
4461;DHT22;2243;48.812;9.232;2022-12-18T17:32:18;-2.00;99.90
4461;DHT22;2243;48.812;9.232;2022-12-18T17:34:50;-2.10;99.90
4461;DHT22;2243;48.812;9.232;2022-12-18T17:37:21;-2.10;99.90
4461;DHT22;2243;48.812;9.232;2022-12-18T17:39:53;-2.20;99.90
4461;DHT22;2243;48.812;9.232;2022-12-18T17:42:23;-2.40;99.90
4461;DHT22;2243;48.812;9.232;2022-12-18T17:44:56;-2.30;99.90
4461;DHT22;2243;48.812;9.232;2022-12-18T17:47:27;-2.50;99.90
4461;DHT22;2243;48.812;9.232;2022-12-18T17:49:58;-2.40;99.90
4461;DHT22;2243;48.812;9.232;2022-12-18T17:52:29;-2.40;99.90
4461;DHT22;2243;48.812;9.232;2022-12-18T17:55:03;-2.40;99.90
4461;DHT22;2243;48.812;9.232;2022-12-18T17:57:34;-2.40;99.90
4461;DHT22;2243;48.812;9.232;2022-12-18T18:00:07;-2.50;99.90
4461;DHT22;2243;48.812;9.232;2022-12-18T18:02:39;-2.50;99.90
4461;DHT22;2243;48.812;9.232;2022-12-18T18:05:11;-2.40;99.90
4461;DHT22;2243;48.812;9.232;2022-12-18T18:07:45;-2.30;99.90
4461;DHT22;2243;48.812;9.232;2022-12-18T18:10:17;-2.30;99.90
4461;DHT22;2243;48.812;9.232;2022-12-18T18:12:48;-2.20;99.90
4461;DHT22;2243;48.812;9.232;2022-12-18T18:15:37;-2.10;99.90
4461;DHT22;2243;48.812;9.232;2022-12-18T18:18:09;-2.10;99.90
4461;DHT22;2243;48.812;9.232;2022-12-18T18:20:41;-2.20;99.90
4461;DHT22;2243;48.812;9.232;2022-12-18T18:23:12;-2.10;99.90
4461;DHT22;2243;48.812;9.232;2022-12-18T18:25:43;-2.30;99.90
4461;DHT22;2243;48.812;9.232;2022-12-18T18:28:16;-2.20;99.90
4461;DHT22;2243;48.812;9.232;2022-12-18T18:30:47;-2.30;99.90
4461;DHT22;2243;48.812;9.232;2022-12-18T18:33:18;-2.20;99.90
4461;DHT22;2243;48.812;9.232;2022-12-18T18:35:49;-2.20;99.90
4461;DHT22;2243;48.812;9.232;2022-12-18T18:38:24;-2.20;99.90
4461;DHT22;2243;48.812;9.232;2022-12-18T18:41:02;-2.20;99.90
4461;DHT22;2243;48.812;9.232;2022-12-18T18:43:34;-2.20;99.90